Terminal Aerodrome Forecast
Issued by NWS

Home | Current Version | Previous Version | Text Only | Print | Product List | Glossary On
Versions: 1 2 3 4 5 6 7 8 9 10 11 12 13 14 15 16 17 18
000
FTUS46 KPDT 241100
TAFBDN
TAF
KBDN 241120Z 2412/2512 22006KT P6SM SKC
     FM241800 28006KT P6SM FEW050
     FM242100 34011KT P6SM SCT050
     FM250500 VRB05KT P6SM SKC=

USA.gov is the U.S. government's official web portal to all federal, state and local government web resources and services.